Time;durP1;ratioP1;P1;durP2;ratioP2;P2;SDS_P1;SDS_P2;PMS_P1;PMS_P2;Temp;Humidity;BMP_temperature;BMP_pressure;BME280_temperature;BME280_humidity;BME280_pressure;Samples;Min_cycle;Max_cycle;Signal;HPM_P1;HPM_P2
2022/02/03 00:00:05;;;;;;;27.38;8.05;;;;;;;2.81;100.00;98569.47;4980640;28;20030;-56
2022/02/03 00:05:16;;;;;;;25.13;8.68;;;;;;;2.86;100.00;98575.47;4978038;28;20108;-55
2022/02/03 00:27:14;;;;;;;28.00;7.25;;;;;;;2.12;100.00;98593.44;4979790;28;20091;-57
2022/02/03 00:38:21;;;;;;;33.03;7.68;;;;;;;2.34;100.00;98601.22;4979664;28;20041;-56
2022/02/03 00:49:00;;;;;;;24.95;8.23;;;;;;;1.95;100.00;98608.00;4979984;28;20064;-55
2022/02/03 00:51:27;;;;;;;28.45;7.78;;;;;;;2.05;100.00;98606.28;4978793;28;20026;-55
2022/02/03 00:53:56;;;;;;;34.53;8.15;;;;;;;2.04;100.00;98602.88;4979794;28;20041;-55
2022/02/03 00:56:28;;;;;;;33.80;8.15;;;;;;;1.40;100.00;98603.47;4979368;28;20042;-55
2022/02/03 00:59:04;;;;;;;27.42;7.00;;;;;;;2.14;100.00;98602.91;4979700;28;20026;-57
2022/02/03 01:01:39;;;;;;;25.98;7.30;;;;;;;2.04;100.00;98600.28;4978370;28;20049;-55
2022/02/03 01:04:12;;;;;;;20.30;5.78;;;;;;;2.35;100.00;98597.75;4979676;28;20169;-57
2022/02/03 01:09:37;;;;;;;27.75;6.80;;;;;;;2.48;100.00;98602.09;4969988;28;20710;-57
2022/02/03 01:14:44;;;;;;;29.48;8.10;;;;;;;2.22;100.00;98593.47;4979314;28;20030;-55
2022/02/03 01:17:37;;;;;;;31.45;8.52;;;;;;;2.06;100.00;98590.88;4978627;28;21201;-56
2022/02/03 01:45:03;;;;;;;30.15;9.68;;;;;;;2.20;100.00;98587.44;4978552;28;20132;-56
2022/02/03 01:52:47;;;;;;;28.08;8.02;;;;;;;2.40;100.00;98578.03;4978211;28;20121;-56
2022/02/03 01:55:20;;;;;;;28.13;8.40;;;;;;;2.67;100.00;98571.19;4978089;28;20116;-57
2022/02/03 01:58:28;;;;;;;36.13;9.48;;;;;;;2.48;100.00;98573.78;4961258;28;20118;-56
2022/02/03 02:01:00;;;;;;;34.40;9.20;;;;;;;2.65;100.00;98580.66;4966727;28;20054;-57
2022/02/03 02:03:37;;;;;;;31.98;8.32;;;;;;;2.34;100.00;98575.47;4978184;28;20455;-55
2022/02/03 02:06:24;;;;;;;33.13;8.43;;;;;;;2.62;100.00;98570.34;4977634;28;20046;-57
2022/02/03 02:09:02;;;;;;;33.92;8.93;;;;;;;2.65;100.00;98575.50;4978290;28;20030;-57
2022/02/03 02:11:49;;;;;;;23.58;7.03;;;;;;;3.15;100.00;98576.31;4977746;28;20034;-56
2022/02/03 02:39:31;;;;;;;32.70;9.05;;;;;;;2.48;100.00;98555.75;4977908;28;20096;-55
2022/02/03 02:45:03;;;;;;;35.88;8.63;;;;;;;2.77;100.00;98551.44;4977582;28;20532;-56
2022/02/03 02:47:29;;;;;;;32.13;8.63;;;;;;;2.64;100.00;98561.72;4977573;28;20862;-57
2022/02/03 02:50:16;;;;;;;34.35;8.68;;;;;;;2.89;100.00;98554.00;4977412;28;20561;-56
2022/02/03 02:52:56;;;;;;;35.10;8.68;;;;;;;2.27;100.00;98554.00;4977337;28;20572;-56
2022/02/03 02:55:57;;;;;;;34.80;8.50;;;;;;;2.47;100.00;98541.13;4976542;28;20740;-54
2022/02/03 02:58:56;;;;;;;29.52;7.95;;;;;;;2.77;100.00;98536.81;4977683;28;20428;-55
2022/02/03 03:29:15;;;;;;;35.13;8.02;;;;;;;2.38;100.00;98509.41;4976940;28;20152;-56
2022/02/03 03:32:04;;;;;;;31.58;8.43;;;;;;;2.42;100.00;98517.09;4980067;28;20044;-56
2022/02/03 03:37:42;;;;;;;30.55;8.25;;;;;;;3.07;100.00;98512.72;4883726;29;20527;-56
2022/02/03 03:40:10;;;;;;;32.85;8.40;;;;;;;3.37;100.00;98516.06;4965469;28;20129;-54
2022/02/03 03:42:44;;;;;;;24.85;7.20;;;;;;;3.23;100.00;98517.84;4981258;28;20645;-57
2022/02/03 03:45:11;;;;;;;22.30;6.97;;;;;;;3.33;100.00;98516.06;4980566;28;20588;-55
2022/02/03 03:47:41;;;;;;;33.85;7.95;;;;;;;2.85;100.00;98517.06;4981053;28;20022;-56
2022/02/03 03:50:12;;;;;;;27.83;7.88;;;;;;;2.89;100.00;98513.63;4979802;28;20051;-56
2022/02/03 03:52:46;;;;;;;24.80;7.50;;;;;;;3.23;100.00;98510.94;4980816;28;20014;-56
2022/02/03 03:58:15;;;;;;;28.67;7.80;;;;;;;3.44;100.00;98506.59;4981116;28;20014;-54
2022/02/03 04:54:24;;;;;;;28.42;7.70;;;;;;;3.19;100.00;98480.88;4962820;28;20033;-56
2022/02/03 04:57:49;;;;;;;37.65;9.05;;;;;;;3.32;100.00;98466.22;4979187;28;20038;-56
2022/02/03 05:00:45;;;;;;;34.45;8.48;;;;;;;3.30;100.00;98467.13;4967421;28;20038;-56
2022/02/03 05:03:03;;;;;;;37.45;9.07;;;;;;;3.64;100.00;98466.06;4967545;28;20791;-54
2022/02/03 05:11:36;;;;;;;30.15;8.93;;;;;;;3.60;100.00;98456.66;4978929;28;20081;-57
2022/02/03 06:08:00;;;;;;;32.15;9.18;;;;;;;3.36;100.00;98425.81;4981355;28;20022;-55
2022/02/03 06:13:28;;;;;;;27.25;9.57;;;;;;;3.55;100.00;98422.28;4981276;28;20154;-56
2022/02/03 06:17:03;;;;;;;28.88;9.07;;;;;;;3.80;100.00;98416.94;4962818;28;20587;-56
2022/02/03 06:24:50;;;;;;;37.58;9.93;;;;;;;3.91;100.00;98409.97;4980914;28;20033;-56
2022/02/03 06:29:38;;;;;;;34.58;10.10;;;;;;;3.65;100.00;98403.28;4980745;28;20041;-55
2022/02/03 06:32:04;;;;;;;31.50;9.30;;;;;;;3.81;100.00;98404.03;4980292;28;20145;-54
2022/02/03 06:34:29;;;;;;;32.47;10.38;;;;;;;3.94;100.00;98403.97;4981024;28;20022;-56
2022/02/03 06:36:55;;;;;;;29.85;9.13;;;;;;;3.97;100.00;98401.31;4980627;28;20967;-56
2022/02/03 06:39:26;;;;;;;29.83;8.43;;;;;;;3.55;100.00;98404.22;4980881;28;20030;-56
2022/02/03 06:41:56;;;;;;;29.55;9.43;;;;;;;3.78;100.00;98398.88;4980336;28;20141;-56
2022/02/03 06:44:28;;;;;;;31.35;8.98;;;;;;;3.35;100.00;98393.19;4980819;28;20030;-54
2022/02/03 06:46:58;;;;;;;;;;;;;;;3.64;100.00;98391.25;4981621;28;20484;-56
2022/02/03 06:52:08;;;;;;;39.38;9.75;;;;;;;3.85;100.00;98389.38;4980268;28;20034;-56
2022/02/03 06:57:27;;;;;;;37.45;10.75;;;;;;;3.65;100.00;98392.97;4980102;28;20089;-56
2022/02/03 07:00:00;;;;;;;33.17;9.85;;;;;;;3.67;100.00;98391.22;4980569;28;20026;-56
2022/02/03 07:02:29;;;;;;;39.10;11.20;;;;;;;3.84;100.00;98395.41;4979138;28;20077;-56
2022/02/03 07:04:56;;;;;;;37.25;10.45;;;;;;;3.52;100.00;98396.50;4979667;28;20774;-55
2022/02/03 07:07:26;;;;;;;41.33;11.45;;;;;;;3.75;100.00;98398.06;4978967;28;20149;-56
2022/02/03 07:09:53;;;;;;;46.78;11.63;;;;;;;3.53;100.00;98398.22;4978711;28;20057;-56
2022/02/03 07:12:22;;;;;;;37.70;10.57;;;;;;;3.62;100.00;98386.97;4978860;28;20086;-55
2022/02/03 07:14:49;;;;;;;33.05;10.15;;;;;;;4.15;100.00;98392.59;4980382;28;20033;-57
2022/02/03 07:17:17;;;;;;;36.40;11.05;;;;;;;4.54;100.00;98385.31;4979925;28;20049;-58
2022/02/03 07:19:48;;;;;;;33.80;10.82;;;;;;;4.35;100.00;98385.50;4980365;28;20054;-58
2022/02/03 07:22:18;;;;;;;30.15;10.45;;;;;;;4.43;100.00;98391.47;4979584;28;20035;-57
2022/02/03 07:24:45;;;;;;;33.75;10.35;;;;;;;4.10;100.00;98382.31;4980243;28;20069;-55
2022/02/03 07:27:11;;;;;;;33.65;10.10;;;;;;;4.20;100.00;98380.50;4979587;28;20046;-55
2022/02/03 07:29:37;;;;;;;34.17;11.77;;;;;;;4.05;100.00;98377.16;4980308;28;20945;-57
2022/02/03 07:32:03;;;;;;;37.10;11.25;;;;;;;4.51;100.00;98369.88;4979138;28;20044;-56
2022/02/03 07:34:29;;;;;;;33.28;10.80;;;;;;;4.88;100.00;98379.78;4980215;28;20500;-55
2022/02/03 07:36:55;;;;;;;44.63;12.60;;;;;;;4.24;100.00;98377.00;4979922;28;20045;-56
2022/02/03 07:39:20;;;;;;;35.35;12.10;;;;;;;4.59;100.00;98375.78;4980233;28;20030;-56
2022/02/03 07:41:46;;;;;;;50.97;14.85;;;;;;;4.54;100.00;98369.81;4979732;28;20031;-56
2022/02/03 07:44:16;;;;;;;41.55;13.15;;;;;;;5.11;100.00;98375.19;4979985;28;20030;-55
2022/02/03 07:46:45;;;;;;;34.33;12.48;;;;;;;4.72;100.00;98374.75;4980030;28;20045;-57
2022/02/03 07:49:11;;;;;;;41.90;14.05;;;;;;;5.08;100.00;98369.19;4979976;28;20026;-55
2022/02/03 07:51:39;;;;;;;40.72;13.35;;;;;;;4.92;100.00;98371.09;4979099;28;20109;-56
2022/02/03 07:54:05;;;;;;;33.35;12.30;;;;;;;5.06;100.00;98371.78;4979642;28;20038;-55
2022/02/03 07:56:34;;;;;;;40.67;12.35;;;;;;;4.95;100.00;98366.75;4980124;28;20423;-56
2022/02/03 07:59:00;;;;;;;39.08;14.05;;;;;;;5.05;100.00;98370.06;4979668;28;20070;-57
2022/02/03 08:01:29;;;;;;;31.05;12.00;;;;;;;5.16;100.00;98365.59;4979351;28;20030;-56
2022/02/03 08:03:56;;;;;;;40.85;13.70;;;;;;;5.15;100.00;98369.09;4979918;28;20049;-57
2022/02/03 08:06:27;;;;;;;39.85;13.93;;;;;;;5.51;100.00;98358.22;4979220;28;20132;-57
2022/02/03 08:08:59;;;;;;;37.55;13.43;;;;;;;5.38;100.00;98361.00;4979807;28;20535;-54
2022/02/03 08:11:35;;;;;;;44.67;16.17;;;;;;;5.27;100.00;98354.28;4979093;28;20035;-56
2022/02/03 08:16:38;;;;;;;39.80;14.90;;;;;;;5.39;100.00;98354.94;4979383;28;20034;-55
2022/02/03 08:19:15;;;;;;;40.47;14.80;;;;;;;5.65;100.00;98352.88;4982487;28;20034;-54
2022/02/03 08:21:45;;;;;;;39.90;13.80;;;;;;;5.65;100.00;98353.72;4982700;28;20522;-54
2022/02/03 08:27:25;;;;;;;;;;;;;;;5.71;100.00;98357.94;4975701;28;20043;-56
2022/02/03 08:32:43;;;;;;;42.45;15.30;;;;;;;5.80;100.00;98355.19;4982685;28;20118;-55
2022/02/03 08:35:21;;;;;;;44.05;15.48;;;;;;;5.75;100.00;98355.28;4982883;28;20026;-55
2022/02/03 08:40:44;;;;;;;42.85;17.75;;;;;;;5.84;100.00;98350.81;4982737;28;20030;-55
2022/02/03 08:43:15;;;;;;;52.83;19.90;;;;;;;5.57;100.00;98356.41;4983296;28;20583;-55
2022/02/03 08:45:42;;;;;;;49.15;17.58;;;;;;;5.93;100.00;98354.09;4982539;28;20046;-54
2022/02/03 08:48:12;;;;;;;46.70;17.27;;;;;;;6.00;100.00;98339.38;4982796;28;20554;-55
2022/02/03 08:50:38;;;;;;;45.38;16.83;;;;;;;5.94;100.00;98337.69;4981867;28;20182;-54
2022/02/03 08:58:32;;;;;;;39.88;16.25;;;;;;;6.17;100.00;98347.69;4982757;28;20038;-56
2022/02/03 09:34:38;;;;;;;31.77;11.85;;;;;;;8.20;100.00;98311.25;4982027;28;20132;-57
2022/02/03 09:55:17;;;;;;;27.63;10.10;;;;;;;8.85;100.00;98271.31;4965378;28;20128;-55
2022/02/03 09:58:38;;;;;;;26.33;9.75;;;;;;;8.52;100.00;98272.31;4981747;28;20030;-55
2022/02/03 10:00:53;;;;;;;31.92;10.35;;;;;;;8.50;100.00;98282.75;4976731;28;20595;-55
2022/02/03 10:03:41;;;;;;;30.42;10.27;;;;;;;8.32;100.00;98275.44;4980943;28;20045;-55
2022/02/03 10:06:19;;;;;;;29.90;11.02;;;;;;;8.84;100.00;98266.16;4980386;28;20042;-55
2022/02/03 10:08:55;;;;;;;27.70;11.20;;;;;;;8.91;100.00;98267.69;4981718;28;20076;-55
2022/02/03 10:11:24;;;;;;;29.55;11.15;;;;;;;8.95;100.00;98269.31;4980666;28;20416;-54
2022/02/03 10:13:54;;;;;;;26.63;11.02;;;;;;;8.75;100.00;98277.72;4982104;28;20073;-55
2022/02/03 10:16:24;;;;;;;23.95;9.68;;;;;;;8.74;100.00;98269.94;4978772;28;20129;-56
2022/02/03 10:19:05;;;;;;;27.35;10.73;;;;;;;9.22;100.00;98271.94;4980302;28;20030;-56
2022/02/03 10:21:32;;;;;;;25.88;9.75;;;;;;;8.98;100.00;98257.94;4963537;28;20034;-59
2022/02/03 10:24:06;;;;;;;25.67;10.05;;;;;;;9.43;100.00;98254.81;4981294;28;20029;-57
2022/02/03 10:26:49;;;;;;;23.88;9.65;;;;;;;9.63;100.00;98243.72;4980701;28;20044;-59
2022/02/03 10:29:20;;;;;;;;;;;;;;;9.83;100.00;98249.13;4981310;28;20519;-58
2022/02/03 10:31:47;;;;;;;21.58;8.93;;;;;;;9.54;100.00;98225.81;4980359;28;19921;-57
2022/02/03 10:34:17;;;;;;;24.23;9.65;;;;;;;9.41;100.00;98226.22;4962929;28;20033;-58
2022/02/03 11:11:19;;;;;;;15.07;7.32;;;;;;;10.41;100.00;98186.28;4979338;28;20038;-56
2022/02/03 11:13:46;;;;;;;14.93;6.93;;;;;;;10.10;100.00;98172.66;4980602;28;20030;-56
2022/02/03 11:16:15;;;;;;;16.27;7.55;;;;;;;10.45;100.00;98158.31;4979734;28;20042;-56
2022/02/03 11:18:45;;;;;;;15.35;6.90;;;;;;;10.61;100.00;98162.06;4980447;28;20061;-56
2022/02/03 11:21:14;;;;;;;15.98;7.50;;;;;;;10.54;100.00;98160.59;4956184;28;20044;-56
2022/02/03 11:23:49;;;;;;;15.40;7.00;;;;;;;10.12;100.00;98166.47;4980857;28;20057;-55
2022/02/03 11:26:28;;;;;;;13.38;5.07;;;;;;;11.03;100.00;98175.22;4980169;28;20120;-56
2022/02/03 11:37:45;;;;;;;16.45;6.78;;;;;;;10.63;100.00;98148.13;4979409;28;20046;-56
2022/02/03 12:19:40;;;;;;;11.70;4.63;;;;;;;11.55;100.00;98039.88;4983544;28;20405;-57
2022/02/03 12:25:05;;;;;;;11.32;4.57;;;;;;;11.65;100.00;98022.88;4983737;28;20033;-54
2022/02/03 12:27:51;;;;;;;9.05;4.03;;;;;;;11.54;100.00;98022.50;4982572;28;20085;-56
2022/02/03 12:30:38;;;;;;;13.23;4.65;;;;;;;11.55;100.00;98013.75;4982125;28;20424;-56
2022/02/03 12:38:38;;;;;;;11.77;4.35;;;;;;;11.53;100.00;97999.91;4983351;28;20076;-54
2022/02/03 12:41:12;;;;;;;8.80;3.80;;;;;;;11.29;100.00;98010.53;4982654;28;20514;-56
2022/02/03 12:43:55;;;;;;;8.77;3.90;;;;;;;11.51;100.00;98004.38;4982556;28;20381;-56
2022/02/03 12:46:25;;;;;;;9.65;3.72;;;;;;;11.59;100.00;98002.25;4982694;28;20041;-56
2022/02/03 12:49:02;;;;;;;7.18;3.15;;;;;;;11.68;100.00;97991.38;4982582;28;20037;-55
2022/02/03 12:51:29;;;;;;;6.47;2.60;;;;;;;11.54;100.00;97978.09;4982431;28;20049;-54
2022/02/03 12:54:12;;;;;;;6.90;2.83;;;;;;;11.34;100.00;97972.00;4983261;28;20035;-56
2022/02/03 12:56:37;;;;;;;6.95;2.70;;;;;;;11.54;100.00;97957.19;4981339;28;20034;-56
2022/02/03 12:59:09;;;;;;;6.78;2.92;;;;;;;11.44;100.00;97956.75;4982572;28;20405;-56
2022/02/03 13:01:40;;;;;;;9.50;3.20;;;;;;;11.66;100.00;97947.97;4981918;28;20440;-54
2022/02/03 13:04:13;;;;;;;8.43;2.92;;;;;;;11.46;100.00;97964.53;4981294;28;20042;-57
2022/02/03 13:07:03;;;;;;;6.80;2.67;;;;;;;11.49;100.00;97964.41;4982049;28;20105;-56
2022/02/03 13:09:34;;;;;;;6.80;2.50;;;;;;;10.90;100.00;97951.31;4981810;28;20078;-57
2022/02/03 13:12:16;;;;;;;8.13;2.78;;;;;;;11.50;100.00;97942.56;4969845;28;20054;-57
2022/02/03 13:14:55;;;;;;;8.07;2.70;;;;;;;11.10;100.00;97946.97;4981793;28;20444;-56
2022/02/03 13:17:26;;;;;;;9.27;3.20;;;;;;;11.32;100.00;97936.41;4978050;28;20053;-56
2022/02/03 13:20:00;;;;;;;6.82;2.58;;;;;;;11.33;100.00;97933.75;4982336;28;20045;-56
2022/02/03 13:22:34;;;;;;;7.72;2.63;;;;;;;11.14;100.00;97938.94;4981670;28;20046;-56
2022/02/03 13:27:56;;;;;;;6.53;2.63;;;;;;;11.12;100.00;97934.69;4981169;28;20104;-56
2022/02/03 13:31:05;;;;;;;6.65;2.60;;;;;;;11.25;100.00;97925.41;4981398;28;20099;-57
2022/02/03 13:33:44;;;;;;;6.63;2.47;;;;;;;11.50;100.00;97925.13;4982030;28;20492;-56
2022/02/03 13:36:20;;;;;;;7.80;2.70;;;;;;;11.13;100.00;97937.25;4981512;28;20555;-58
2022/02/03 13:39:02;;;;;;;6.82;2.70;;;;;;;11.28;100.00;97930.47;4981688;28;20539;-57
2022/02/03 13:41:31;;;;;;;7.93;2.63;;;;;;;11.11;100.00;97912.13;4981209;28;20077;-56
2022/02/03 13:44:04;;;;;;;7.65;2.72;;;;;;;11.14;100.00;97914.63;4981548;28;20033;-56
2022/02/03 13:46:31;;;;;;;6.30;2.60;;;;;;;10.87;100.00;97909.69;4980689;28;20042;-56
2022/02/03 13:48:58;;;;;;;6.10;2.28;;;;;;;11.13;100.00;97905.06;4981310;28;20030;-56
2022/02/03 13:51:39;;;;;;;6.97;2.58;;;;;;;11.38;100.00;97897.00;4981257;28;20046;-56
2022/02/03 13:54:32;;;;;;;6.32;2.30;;;;;;;10.71;100.00;97903.44;4981976;28;20026;-57
2022/02/03 14:21:46;;;;;;;5.97;2.47;;;;;;;11.15;100.00;97871.91;4980465;28;20639;-55
2022/02/03 14:27:23;;;;;;;7.72;3.17;;;;;;;11.46;100.00;97860.06;4980790;28;20166;-54
2022/02/03 14:30:00;;;;;;;6.10;2.58;;;;;;;11.33;100.00;97846.72;4981458;28;20040;-56
2022/02/03 14:32:39;;;;;;;6.47;2.75;;;;;;;10.89;100.00;97844.38;4980371;28;20038;-56
2022/02/03 14:35:07;;;;;;;8.55;2.95;;;;;;;11.05;100.00;97834.13;4980748;28;20037;-57
2022/02/03 14:37:58;;;;;;;7.82;3.10;;;;;;;11.49;100.00;97841.66;4978122;28;20038;-57
2022/02/03 14:40:40;;;;;;;10.27;3.85;;;;;;;11.40;100.00;97845.53;4978381;28;20133;-55
2022/02/03 14:43:09;;;;;;;10.35;3.60;;;;;;;11.27;100.00;97842.66;4980375;28;20034;-55
2022/02/03 14:45:35;;;;;;;29.58;12.23;;;;;;;11.11;100.00;97837.28;4980462;28;20033;-56
2022/02/03 14:48:02;;;;;;;11.98;5.10;;;;;;;10.50;100.00;97833.03;4980487;28;20029;-56
2022/02/03 14:50:31;;;;;;;14.13;7.30;;;;;;;10.44;100.00;97828.09;4980106;28;20046;-56
2022/02/03 14:53:08;;;;;;;17.80;8.32;;;;;;;10.41;100.00;97826.44;4980492;28;20143;-56
2022/02/03 15:00:49;;;;;;;17.15;7.60;;;;;;;11.02;100.00;97824.63;4979785;28;20681;-56
2022/02/03 15:03:17;;;;;;;13.60;6.25;;;;;;;10.49;100.00;97820.88;4980170;28;20073;-56
2022/02/03 15:05:46;;;;;;;12.95;5.15;;;;;;;10.68;100.00;97818.34;4980530;28;20125;-57
2022/02/03 15:08:22;;;;;;;10.23;4.95;;;;;;;10.11;100.00;97815.53;4980773;28;20512;-57
2022/02/03 15:15:57;;;;;;;12.80;5.07;;;;;;;10.19;100.00;97817.81;4979509;28;20197;-54
2022/02/03 15:18:23;;;;;;;10.30;4.47;;;;;;;10.69;100.00;97806.97;4979659;28;20036;-56
2022/02/03 15:20:48;;;;;;;10.45;4.57;;;;;;;10.57;100.00;97800.56;4979652;28;20038;-55
2022/02/03 15:23:15;;;;;;;10.07;4.57;;;;;;;10.80;100.00;97801.28;4980209;28;20034;-55
2022/02/03 15:25:41;;;;;;;11.07;4.75;;;;;;;10.66;100.00;97806.25;4980333;28;20038;-57
2022/02/03 15:28:07;;;;;;;10.60;4.70;;;;;;;10.72;100.00;97803.41;4986554;28;20045;-56
2022/02/03 15:30:33;;;;;;;12.07;4.60;;;;;;;10.35;100.00;97794.59;4985668;28;20050;-56
2022/02/03 15:32:59;;;;;;;9.13;3.97;;;;;;;10.51;100.00;97792.16;4986415;28;20023;-56
2022/02/03 15:35:35;;;;;;;11.95;4.30;;;;;;;10.61;100.00;97783.84;4986076;28;20034;-56
2022/02/03 15:38:04;;;;;;;12.10;4.30;;;;;;;10.20;100.00;97777.78;4986233;28;20497;-54
2022/02/03 15:40:36;;;;;;;10.70;4.15;;;;;;;10.18;100.00;97766.59;4985461;28;20042;-55
2022/02/03 15:43:25;;;;;;;9.13;3.75;;;;;;;10.23;100.00;97768.09;4986607;28;20039;-55
2022/02/03 15:45:58;;;;;;;9.85;4.00;;;;;;;10.32;100.00;97760.81;4985749;28;20038;-55
2022/02/03 15:48:44;;;;;;;10.82;3.78;;;;;;;10.64;100.00;97761.16;4986474;28;20030;-55
2022/02/03 15:56:53;;;;;;;8.88;3.50;;;;;;;10.11;100.00;97737.38;4985835;28;20040;-56
2022/02/03 16:00:30;;;;;;;8.90;3.80;;;;;;;10.11;100.00;97731.28;4986133;28;20133;-55
2022/02/03 16:02:44;;;;;;;9.68;3.80;;;;;;;10.21;100.00;97732.59;4984893;28;20042;-56
2022/02/03 16:14:12;;;;;;;10.15;3.75;;;;;;;10.16;100.00;97731.94;4985547;28;20077;-56
2022/02/03 16:19:31;;;;;;;11.50;4.13;;;;;;;10.16;100.00;97711.94;4967724;28;20092;-56
2022/02/03 16:22:14;;;;;;;8.25;3.50;;;;;;;9.56;100.00;97713.66;4986038;28;20317;-55
2022/02/03 16:24:52;;;;;;;9.43;3.40;;;;;;;9.95;100.00;97715.50;4985306;28;20133;-57
2022/02/03 16:42:01;;;;;;;11.27;4.28;;;;;;;9.93;100.00;97752.03;4982063;28;20612;-57
2022/02/03 16:52:26;;;;;;;9.63;4.18;;;;;;;9.99;100.00;97753.50;4982831;28;20044;-55
2022/02/03 16:54:58;;;;;;;9.40;3.83;;;;;;;10.37;100.00;97764.94;4982702;28;20817;-56
2022/02/03 16:57:26;;;;;;;11.48;4.20;;;;;;;10.08;100.00;97763.53;4982286;28;20042;-57
2022/02/03 17:00:00;;;;;;;10.43;4.18;;;;;;;9.93;100.00;97731.19;4981298;28;20555;-57
2022/02/03 17:02:29;;;;;;;8.48;3.90;;;;;;;10.29;100.00;97734.84;4981720;28;20034;-56
2022/02/03 17:04:59;;;;;;;8.65;4.10;;;;;;;10.44;100.00;97755.09;4981307;28;20026;-55
2022/02/03 17:07:25;;;;;;;10.98;4.28;;;;;;;10.49;100.00;97768.75;4979913;28;20097;-54
2022/02/03 17:09:55;;;;;;;8.45;3.63;;;;;;;10.43;100.00;97758.59;4981093;28;20026;-55
2022/02/03 17:12:21;;;;;;;8.77;3.67;;;;;;;10.37;100.00;97753.66;4981179;28;20110;-54
2022/02/03 17:14:50;;;;;;;10.27;4.05;;;;;;;10.59;100.00;97754.38;4982039;28;20113;-55
2022/02/03 17:17:19;;;;;;;10.73;4.38;;;;;;;10.77;100.00;97772.72;4981561;28;20054;-55
2022/02/03 17:19:45;;;;;;;8.98;3.90;;;;;;;10.23;100.00;97773.31;4981926;28;20054;-57
2022/02/03 17:22:20;;;;;;;8.90;3.75;;;;;;;10.26;100.00;97767.13;4982374;28;20049;-57
2022/02/03 17:24:59;;;;;;;9.63;4.10;;;;;;;10.59;100.00;97769.19;4981672;28;20030;-55
2022/02/03 17:27:42;;;;;;;10.02;4.20;;;;;;;10.52;100.00;97768.63;4981081;28;20026;-57
2022/02/03 18:35:20;;;;;;;10.00;4.82;;;;;;;9.85;100.00;97741.06;4980407;28;20539;-58
2022/02/03 18:54:15;;;;;;;14.50;5.60;;;;;;;9.76;100.00;97728.44;4980849;28;20026;-56
2022/02/03 18:59:29;;;;;;;14.90;6.32;;;;;;;9.62;100.00;97698.59;4980432;28;20026;-57
2022/02/03 19:26:25;;;;;;;13.70;6.68;;;;;;;9.20;100.00;97686.44;4979768;28;20038;-57
2022/02/03 20:06:55;;;;;;;16.30;6.40;;;;;;;8.97;100.00;97679.59;4979119;28;20038;-56
2022/02/03 20:11:49;;;;;;;12.52;5.78;;;;;;;8.59;100.00;97674.09;4979132;28;20100;-59
2022/02/03 20:14:15;;;;;;;12.88;5.68;;;;;;;8.75;100.00;97684.78;4983449;28;20037;-58
2022/02/03 20:16:43;;;;;;;13.30;5.43;;;;;;;8.73;100.00;97676.19;4982751;28;20034;-58
2022/02/03 20:19:10;;;;;;;11.23;4.93;;;;;;;8.92;100.00;97662.47;4983124;28;20109;-57
2022/02/03 20:21:39;;;;;;;12.55;5.57;;;;;;;9.16;100.00;97658.03;4982592;28;20085;-57
2022/02/03 20:24:06;;;;;;;13.77;5.57;;;;;;;8.99;100.00;97646.53;4982369;28;20022;-57
2022/02/03 20:26:34;;;;;;;12.70;5.25;;;;;;;8.94;100.00;97658.88;4982951;28;20031;-57
2022/02/03 20:29:00;;;;;;;12.18;5.22;;;;;;;8.98;100.00;97659.59;4983037;28;20060;-57
2022/02/03 20:31:26;;;;;;;10.98;5.05;;;;;;;8.65;100.00;97662.63;4982562;28;20066;-57
2022/02/03 20:33:52;;;;;;;16.20;7.40;;;;;;;8.65;100.00;97657.44;4982961;28;20030;-57
2022/02/03 20:36:18;;;;;;;17.25;8.15;;;;;;;8.84;100.00;97647.13;4982287;28;20085;-56
2022/02/03 20:38:45;;;;;;;19.00;8.70;;;;;;;8.84;100.00;97648.00;4982825;28;20030;-57
2022/02/03 20:41:11;;;;;;;16.25;7.82;;;;;;;8.64;100.00;97661.78;4982523;28;20046;-55
2022/02/03 20:43:37;;;;;;;18.95;11.13;;;;;;;8.45;100.00;97660.78;4983330;28;20593;-57
2022/02/03 20:46:04;;;;;;;16.90;9.43;;;;;;;8.46;100.00;97657.28;4982892;28;20042;-57
2022/02/03 20:48:30;;;;;;;20.23;10.43;;;;;;;8.61;100.00;97661.06;4982808;28;20037;-58
2022/02/03 20:50:57;;;;;;;15.75;7.15;;;;;;;8.50;100.00;97664.06;4982509;28;20034;-57
2022/02/03 20:53:26;;;;;;;19.13;8.43;;;;;;;8.19;100.00;97670.38;4981809;28;20030;-57
2022/02/03 20:55:52;;;;;;;20.73;8.73;;;;;;;8.88;100.00;97669.53;4982092;28;20030;-57
2022/02/03 20:58:20;;;;;;;17.02;6.47;;;;;;;8.91;100.00;97669.41;4982507;28;20034;-56
2022/02/03 21:01:00;;;;;;;16.13;6.90;;;;;;;8.69;100.00;97659.00;4982113;28;20524;-58
2022/02/03 21:03:49;;;;;;;18.40;7.40;;;;;;;8.70;100.00;97649.47;4982321;28;20088;-58
2022/02/03 21:06:14;;;;;;;18.92;8.52;;;;;;;8.55;100.00;97641.34;4981634;28;20062;-56
2022/02/03 21:08:48;;;;;;;13.30;5.15;;;;;;;8.87;100.00;97653.06;4982491;28;20487;-58
2022/02/03 21:11:15;;;;;;;30.90;13.25;;;;;;;8.85;100.00;97648.84;4981491;28;20050;-57
2022/02/03 21:13:41;;;;;;;21.60;9.07;;;;;;;9.20;100.00;97646.56;4981035;28;20027;-55
2022/02/03 21:16:08;;;;;;;16.50;6.07;;;;;;;9.78;100.00;97657.13;4980343;28;20134;-56
2022/02/03 21:18:38;;;;;;;21.38;9.60;;;;;;;9.47;100.00;97657.59;4981952;28;20033;-57
2022/02/03 21:21:05;;;;;;;16.05;7.82;;;;;;;9.18;100.00;97654.44;4982138;28;20125;-55
2022/02/03 21:23:31;;;;;;;18.58;7.72;;;;;;;9.31;100.00;97651.34;4964055;28;20034;-57
2022/02/03 21:26:00;;;;;;;13.95;7.20;;;;;;;9.26;100.00;97647.19;4959271;28;20085;-56
2022/02/03 21:28:29;;;;;;;15.25;7.22;;;;;;;9.05;100.00;97651.50;4982204;28;20026;-58
2022/02/03 21:30:57;;;;;;;17.38;7.35;;;;;;;9.23;100.00;97649.06;4982546;28;20034;-55
2022/02/03 21:33:27;;;;;;;15.75;7.30;;;;;;;8.98;100.00;97654.41;4983817;28;20073;-57
2022/02/03 21:36:11;;;;;;;13.98;6.88;;;;;;;8.73;100.00;97650.19;4981740;28;20655;-57
2022/02/03 21:38:41;;;;;;;15.70;7.00;;;;;;;8.96;100.00;97641.47;4981201;28;20037;-57
2022/02/03 21:41:10;;;;;;;16.67;7.55;;;;;;;9.19;100.00;97647.47;4980224;28;20046;-57
2022/02/03 21:43:39;;;;;;;21.70;8.40;;;;;;;9.24;100.00;97651.59;4981337;28;20026;-61
2022/02/03 21:46:06;;;;;;;18.98;8.05;;;;;;;9.36;100.00;97644.19;4982180;28;20062;-56
2022/02/03 21:48:32;;;;;;;15.88;7.60;;;;;;;9.39;100.00;97642.31;4981484;28;20057;-56
2022/02/03 21:51:00;;;;;;;15.63;8.07;;;;;;;8.95;100.00;97644.13;4981133;28;20034;-57
2022/02/03 21:53:32;;;;;;;17.08;8.60;;;;;;;9.24;100.00;97636.00;4982036;28;20031;-57
2022/02/03 21:55:59;;;;;;;20.25;8.85;;;;;;;8.78;100.00;97622.22;4980814;28;20043;-55
2022/02/03 21:58:28;;;;;;;18.27;8.68;;;;;;;8.86;100.00;97630.59;4986950;28;20034;-57
2022/02/03 22:00:59;;;;;;;16.08;8.15;;;;;;;9.01;100.00;97633.47;4981390;28;20030;-56
2022/02/03 22:03:30;;;;;;;16.50;8.00;;;;;;;9.20;100.00;97628.34;4982927;28;20030;-57
2022/02/03 22:06:05;;;;;;;16.83;8.63;;;;;;;9.11;100.00;97624.38;4980106;28;20153;-58
2022/02/03 22:08:36;;;;;;;17.42;8.48;;;;;;;8.77;100.00;97635.31;4981829;28;20399;-57
2022/02/03 22:11:06;;;;;;;17.53;8.13;;;;;;;9.10;100.00;97637.44;4980493;28;20049;-55
2022/02/03 22:13:36;;;;;;;17.77;8.43;;;;;;;9.12;100.00;97640.84;4981123;28;20038;-57
2022/02/03 22:16:06;;;;;;;15.43;8.15;;;;;;;9.32;100.00;97637.41;4980774;28;20035;-56
2022/02/03 22:18:33;;;;;;;17.70;8.48;;;;;;;9.04;100.00;97634.22;4980190;28;20034;-57
2022/02/03 22:21:05;;;;;;;16.70;7.63;;;;;;;9.58;100.00;97644.97;4980185;28;20108;-56
2022/02/03 22:42:49;;;;;;;16.33;7.90;;;;;;;8.99;100.00;97650.91;4980025;28;20049;-58
2022/02/03 22:45:36;;;;;;;15.82;7.95;;;;;;;8.83;100.00;97648.06;4980719;28;20145;-58
2022/02/03 22:48:15;;;;;;;14.68;7.28;;;;;;;9.06;100.00;97642.78;4979900;28;20035;-57
2022/02/03 22:50:41;;;;;;;18.15;8.15;;;;;;;9.04;100.00;97644.63;4979807;28;20114;-58
2022/02/03 22:53:06;;;;;;;14.35;7.30;;;;;;;8.95;100.00;97639.78;4980610;28;20117;-56
2022/02/03 22:55:36;;;;;;;12.32;6.32;;;;;;;9.26;100.00;97639.38;4979921;28;20118;-57
2022/02/03 23:01:16;;;;;;;15.93;6.47;;;;;;;9.84;100.00;97645.59;4977841;28;20037;-58
2022/02/03 23:06:17;;;;;;;22.95;7.43;;;;;;;9.29;100.00;97642.75;5389945;23;20049;-55
2022/02/03 23:16:44;;;;;;;12.43;5.32;;;;;;;9.52;100.00;97642.63;5004776;28;20048;-55